CJS5 weather

Killarney Municipal Airport
Killarney, Manitoba, Canada

Public forecast

Using degrees Celsius for public forecast. Weather courtesy of forecast.io.

Closest aviation weather report (METAR) to Killarney Municipal Airport

Closest report is Rolla Municipal Airport, 16.3 nm (30.2 km) S. Retrieved 2019/10/19 11:35 UTC (7 minutes ago):

K06D 191135Z AUTO 23007KT 10SM CLR 01/01 A2952 RMK AO2

Closest aviation forecast (TAF) to Killarney Municipal Airport

Closest forecast is Brandon Municipal Airport, 46.7 nm (86.4 km) NNW. Retrieved 2019/10/19 06:45 UTC (5 hours ago):

TAF TAF CYBR 190544Z 1906/1918 28010KT P6SM SKC FM191500 27010KT P6SM SCT080 BKN180 RMK NXT FCST BY 191200Z